createdAt,value
2017-07-27T14:17:35.801Z,1212
2017-07-27T14:17:57.235Z,1176
2017-07-27T14:18:56.306Z,1092
2017-07-27T14:19:41.892Z,1076
2017-07-27T14:21:44.598Z,988
2017-07-27T14:22:09.481Z,948
2017-07-27T14:23:18.762Z,880
2017-07-27T14:23:47.196Z,848
2017-07-27T14:24:09.715Z,852
2017-07-27T14:31:01.162Z,44
2017-07-27T15:04:36.477Z,44
2017-07-27T15:04:45.787Z,44
2017-07-27T15:05:00.344Z,44
2017-07-27T15:05:01.025Z,44
2017-07-27T15:05:01.568Z,44
2017-07-27T15:05:04.043Z,44
2017-07-27T15:05:04.297Z,44
2017-07-27T15:06:17.822Z,652
2017-07-27T15:06:24.240Z,652
2017-07-27T15:06:30.666Z,648
2017-07-27T15:06:37.056Z,648
2017-07-27T15:06:43.445Z,644
2017-07-27T15:06:49.860Z,648
2017-07-27T15:06:56.248Z,648
2017-07-27T15:07:02.631Z,652
2017-07-27T15:07:09.031Z,656
2017-07-27T15:07:15.422Z,656
2017-07-27T15:07:21.811Z,660
2017-07-27T15:07:28.197Z,664
2017-07-27T15:07:34.580Z,664
2017-07-27T15:08:06.581Z,684
2017-07-27T15:08:27.963Z,688
2017-07-27T15:09:12.477Z,356
2017-07-27T15:09:33.859Z,532
2017-07-27T15:10:10.907Z,208
2017-07-27T15:10:32.342Z,348
2017-07-27T15:11:10.426Z,884
2017-07-27T15:11:32.008Z,956
2017-07-27T15:11:56.022Z,952
2017-07-27T15:12:18.104Z,924
2017-07-27T15:12:39.990Z,992
2017-07-27T15:13:01.876Z,1004
2017-07-27T15:13:24.275Z,1032
2017-07-27T15:13:46.267Z,1060
2017-07-27T15:14:08.301Z,1088
2017-07-27T15:14:29.917Z,1112
2017-07-27T15:14:51.519Z,1144
2017-07-27T15:15:13.131Z,1140
2017-07-27T15:15:34.702Z,1172
2017-07-27T15:15:56.222Z,1160
2017-07-27T15:16:17.772Z,1172
2017-07-27T15:16:39.333Z,1188
2017-07-27T15:17:00.914Z,1216
2017-07-27T15:17:22.424Z,1236
2017-07-27T15:17:43.914Z,1260
2017-07-27T15:18:06.109Z,1276
2017-07-27T15:18:28.097Z,1276
2017-07-27T15:18:49.690Z,1304
2017-07-27T15:19:11.153Z,1320
2017-07-27T15:19:32.711Z,1328
2017-07-27T15:19:54.210Z,1320
2017-07-27T15:20:15.992Z,1288
2017-07-27T15:20:37.581Z,1316
2017-07-27T15:20:59.138Z,1240
2017-07-27T15:21:20.696Z,1244
2017-07-27T15:21:42.616Z,1216
2017-07-27T15:22:04.725Z,1200
2017-07-27T15:22:26.278Z,1204
2017-07-27T15:22:47.797Z,1192
2017-07-27T15:23:09.252Z,1200
2017-07-27T15:23:30.722Z,1204
2017-07-27T15:23:52.277Z,1200
2017-07-27T15:24:13.842Z,1204
2017-07-27T15:24:35.423Z,1216
2017-07-27T15:24:57.356Z,1236
2017-07-27T15:25:19.413Z,1388
2017-07-27T15:25:40.886Z,1244
2017-07-27T15:26:02.452Z,1264
2017-07-27T15:26:23.924Z,1256
2017-07-27T15:26:46.060Z,1240
2017-07-27T15:27:08.198Z,1232
2017-07-27T15:27:29.721Z,1236
2017-07-27T15:27:51.292Z,1248
2017-07-27T15:28:12.799Z,1320
2017-07-27T15:28:34.311Z,1396
2017-07-27T15:28:55.883Z,1304
2017-07-27T15:29:17.423Z,1412
2017-07-27T15:29:39.620Z,1524
2017-07-27T15:30:01.123Z,1544
2017-07-27T15:30:22.656Z,1612
2017-07-27T15:30:44.248Z,1596
2017-07-27T15:31:05.814Z,1700
2017-07-27T15:31:27.372Z,1644
2017-07-27T15:31:48.917Z,1604
2017-07-27T15:32:11.139Z,1732
2017-07-27T15:32:32.638Z,1768
2017-07-27T15:32:54.182Z,1800
2017-07-27T15:33:15.712Z,1628
2017-07-27T15:33:37.224Z,1464
2017-07-27T15:33:58.712Z,1496
2017-07-27T15:34:20.249Z,1492
2017-07-27T15:34:41.737Z,1524
2017-07-27T15:35:03.259Z,1540
2017-07-27T15:35:24.810Z,1572
2017-07-27T15:35:46.341Z,1580
2017-07-27T15:36:08.090Z,1536
2017-07-27T15:36:30.222Z,1588
2017-07-27T15:36:52.412Z,1508
2017-07-27T15:37:13.897Z,1568
2017-07-27T15:37:35.472Z,1616
2017-07-27T15:37:57.021Z,1640
2017-07-27T15:38:18.538Z,1676
2017-07-27T15:38:40.005Z,1612
2017-07-27T15:39:02.075Z,1620
2017-07-27T15:39:24.309Z,1604
2017-07-27T15:39:46.356Z,1680
2017-07-27T15:40:08.454Z,1664
2017-07-27T15:40:29.910Z,1656
2017-07-27T15:40:51.443Z,1640
2017-07-27T15:41:13.142Z,1624
2017-07-27T15:41:34.618Z,1580
2017-07-27T15:41:56.157Z,1588
2017-07-27T15:42:17.865Z,1600
2017-07-27T15:42:40.758Z,1464
2017-07-27T15:43:02.376Z,1404
2017-07-27T15:43:23.873Z,1480
2017-07-27T15:43:45.444Z,1584
2017-07-27T15:44:06.918Z,1632
2017-07-27T15:44:29.025Z,1608
2017-07-27T15:44:51.311Z,1620
2017-07-27T15:45:13.537Z,1516
2017-07-27T15:45:35.045Z,1504
2017-07-27T15:45:56.531Z,1608
2017-07-27T15:46:18.052Z,1540
2017-07-27T15:46:39.588Z,1560
2017-07-27T15:47:01.126Z,1524
2017-07-27T15:47:22.650Z,1452
2017-07-27T15:47:44.228Z,1368
2017-07-27T15:48:05.696Z,1304
2017-07-27T15:48:27.566Z,1360
2017-07-27T15:48:49.647Z,1276
2017-07-27T15:49:11.693Z,1296
2017-07-27T15:49:33.914Z,1304
2017-07-27T15:49:55.404Z,1336
2017-07-27T15:50:16.940Z,1304
2017-07-27T15:50:38.825Z,1344
2017-07-27T15:51:01.031Z,1360
2017-07-27T15:51:22.915Z,1544
2017-07-27T15:51:44.393Z,1472
2017-07-27T15:52:05.955Z,1448
2017-07-27T15:52:27.597Z,1516
2017-07-27T15:52:49.170Z,1416
2017-07-27T15:53:10.741Z,1340
2017-07-27T15:53:32.473Z,1248
2017-07-27T15:53:53.972Z,1236
2017-07-27T15:54:15.553Z,1284
2017-07-27T15:54:37.082Z,1244
2017-07-27T15:54:58.636Z,1248
2017-07-27T15:55:20.118Z,1260
2017-07-27T15:55:41.606Z,1356
2017-07-27T15:56:03.167Z,1372
2017-07-27T15:56:24.685Z,1352
2017-07-27T15:56:46.176Z,1360
2017-07-27T15:57:07.670Z,1404
2017-07-27T15:57:29.790Z,1568
2017-07-27T15:57:52.044Z,1448
2017-07-27T15:58:14.201Z,1536
2017-07-27T15:58:35.695Z,1504
2017-07-27T15:58:57.292Z,1764
2017-07-27T15:59:18.885Z,1456
2017-07-27T15:59:40.623Z,1436
2017-07-27T16:00:03.000Z,1596
2017-07-27T16:00:24.579Z,1540
2017-07-27T16:00:46.190Z,1536
2017-07-27T16:01:08.510Z,1784
2017-07-27T16:01:30.686Z,1472
2017-07-27T16:01:52.799Z,1632
2017-07-27T16:02:14.993Z,1904
2017-07-27T16:02:36.419Z,1596
2017-07-27T16:02:58.117Z,1376
2017-07-27T16:03:20.354Z,1492
2017-07-27T16:03:41.975Z,1616
2017-07-27T16:04:03.474Z,1212
2017-07-27T16:04:25.020Z,1152
2017-07-27T16:04:47.262Z,1140
2017-07-27T16:05:09.478Z,1104
2017-07-27T16:05:31.751Z,1076
2017-07-27T16:05:53.293Z,1080
2017-07-27T16:06:14.867Z,1096
2017-07-27T16:06:36.460Z,1088
2017-07-27T16:06:58.023Z,1048
2017-07-27T16:07:19.605Z,1008
2017-07-27T16:07:41.552Z,976
2017-07-27T16:08:03.609Z,940
2017-07-27T16:08:25.151Z,920
2017-07-27T16:08:46.695Z,908
2017-07-27T16:09:08.742Z,896
2017-07-27T16:09:30.344Z,904
2017-07-27T16:09:51.937Z,912
2017-07-27T16:10:13.515Z,912
2017-07-27T16:10:35.086Z,924
2017-07-27T16:10:56.783Z,940
2017-07-27T16:11:19.641Z,952
2017-07-27T16:11:41.680Z,964
2017-07-27T16:12:03.270Z,960
2017-07-27T16:12:25.236Z,944
2017-07-27T16:12:47.417Z,924
2017-07-27T16:13:45.120Z,864
2017-07-27T16:14:43.371Z,792
2017-07-27T16:15:05.004Z,772
2017-07-27T16:15:27.148Z,760
2017-07-27T16:15:49.254Z,744
2017-07-27T16:16:10.759Z,732
2017-07-27T16:16:32.782Z,724
2017-07-27T16:16:54.772Z,716
2017-07-27T16:17:16.951Z,708
2017-07-27T16:17:39.037Z,700
2017-07-27T16:18:00.583Z,692
2017-07-27T16:18:22.063Z,676
2017-07-27T16:18:43.571Z,656
2017-07-27T16:19:05.590Z,632
2017-07-27T16:19:27.077Z,612
2017-07-27T16:19:48.635Z,592
2017-07-27T16:20:10.203Z,580
2017-07-27T16:20:31.698Z,564
2017-07-27T16:20:53.399Z,548
2017-07-27T16:21:14.897Z,536
2017-07-27T16:21:36.501Z,528
2017-07-27T16:21:58.271Z,520
2017-07-27T16:22:20.428Z,516
2017-07-27T16:22:42.599Z,512
2017-07-27T16:23:04.263Z,512
2017-07-27T16:23:25.820Z,508
2017-07-27T16:23:47.330Z,508
2017-07-27T16:24:08.892Z,508
2017-07-27T16:24:30.415Z,508
2017-07-27T16:24:52.055Z,508
2017-07-27T16:25:13.537Z,508
2017-07-27T16:25:35.772Z,504
2017-07-27T16:25:57.343Z,500
2017-07-27T16:26:18.953Z,496
2017-07-27T16:26:40.998Z,492
2017-07-27T16:27:03.117Z,484
2017-07-27T16:27:24.614Z,484
2017-07-27T16:27:46.161Z,480
2017-07-27T16:28:08.347Z,480
2017-07-27T16:28:30.480Z,484
2017-07-27T16:28:52.544Z,488
2017-07-27T16:29:14.055Z,488
2017-07-27T16:29:35.707Z,496
2017-07-27T16:29:57.222Z,500
2017-07-27T16:30:18.794Z,504
2017-07-27T16:30:40.970Z,512
2017-07-27T16:31:02.401Z,520
2017-07-27T16:31:24.382Z,528
2017-07-27T16:31:46.489Z,536
2017-07-27T16:32:08.770Z,540
2017-07-27T16:32:30.828Z,552
2017-07-27T16:32:52.990Z,564
2017-07-27T16:33:15.103Z,572
2017-07-27T16:33:37.277Z,580
2017-07-27T16:33:59.602Z,588
2017-07-27T16:34:21.733Z,592
2017-07-27T16:34:43.300Z,596
2017-07-27T16:35:04.905Z,600
2017-07-27T16:35:26.457Z,604
2017-07-27T16:35:48.067Z,608
2017-07-27T16:36:09.574Z,604
2017-07-27T16:36:31.231Z,604
2017-07-27T16:36:52.830Z,604
2017-07-27T16:37:14.256Z,600
2017-07-27T16:37:35.823Z,596
2017-07-27T16:37:57.281Z,592
2017-07-27T16:38:18.893Z,588
2017-07-27T16:38:40.762Z,588
2017-07-27T16:39:02.819Z,584
2017-07-27T16:39:24.927Z,580
2017-07-27T16:39:47.154Z,576
2017-07-27T16:40:08.712Z,572
2017-07-27T16:40:30.268Z,576
2017-07-27T16:40:51.877Z,580
2017-07-27T16:41:13.386Z,576
2017-07-27T16:41:34.938Z,580
2017-07-27T16:41:57.129Z,584
2017-07-27T16:42:19.286Z,584
2017-07-27T16:42:40.768Z,584
2017-07-27T16:43:02.249Z,580
2017-07-27T16:43:23.739Z,576
2017-07-27T16:43:45.271Z,576
2017-07-27T16:44:06.771Z,572
2017-07-27T16:44:28.242Z,568
2017-07-27T16:44:49.724Z,564
2017-07-27T16:45:11.211Z,560
2017-07-27T16:45:32.690Z,560
2017-07-27T16:45:54.262Z,552
2017-07-27T16:46:15.926Z,552
2017-07-27T16:46:37.467Z,544
2017-07-27T16:46:58.978Z,544
2017-07-27T16:47:20.575Z,540
2017-07-27T16:47:42.093Z,532
2017-07-27T16:48:03.594Z,528
2017-07-27T16:48:25.164Z,520
2017-07-27T16:48:46.697Z,512
2017-07-27T16:49:08.265Z,508
2017-07-27T16:49:30.397Z,500
2017-07-27T16:49:52.503Z,496
2017-07-27T16:50:14.761Z,488
2017-07-27T16:50:36.975Z,484
2017-07-27T16:50:59.226Z,476
2017-07-27T16:51:21.376Z,468
2017-07-27T16:51:42.860Z,460
2017-07-27T16:52:04.388Z,452
2017-07-27T16:52:25.965Z,452
2017-07-27T16:52:47.565Z,448
2017-07-27T16:53:09.117Z,444
2017-07-27T16:53:30.761Z,440
2017-07-27T16:53:52.633Z,440
2017-07-27T16:54:14.219Z,432
2017-07-27T16:54:35.737Z,424
2017-07-27T16:54:57.866Z,420
2017-07-27T16:55:20.127Z,412
2017-07-27T16:55:42.353Z,408
2017-07-27T16:56:04.592Z,404
2017-07-27T16:56:26.142Z,400
2017-07-27T16:56:47.721Z,392
2017-07-27T16:57:09.655Z,388
2017-07-27T16:57:31.106Z,380
2017-07-27T16:57:52.774Z,372
2017-07-27T16:58:14.272Z,368
2017-07-27T16:58:36.238Z,360
2017-07-27T16:58:58.366Z,352
2017-07-27T16:59:20.751Z,344
2017-07-27T16:59:42.310Z,344
2017-07-27T17:00:03.828Z,340
2017-07-27T17:00:25.982Z,340
2017-07-27T17:00:48.264Z,340
2017-07-27T17:01:10.455Z,344
2017-07-27T17:02:07.827Z,352
2017-07-27T17:02:29.279Z,352
2017-07-27T17:02:50.651Z,356
2017-07-27T17:03:12.520Z,360
2017-07-27T17:03:33.962Z,364
2017-07-27T17:03:55.665Z,364
2017-07-27T17:04:17.189Z,368
2017-07-27T17:04:38.727Z,372
2017-07-27T17:05:00.311Z,368
2017-07-27T17:05:21.899Z,376
2017-07-27T17:05:43.464Z,376
2017-07-27T17:06:04.930Z,372
2017-07-27T17:06:26.462Z,372
2017-07-27T17:06:47.955Z,376
2017-07-27T17:07:09.410Z,376
2017-07-27T17:07:30.821Z,376
2017-07-27T17:07:52.245Z,376
2017-07-27T17:08:13.684Z,372
2017-07-27T17:08:35.223Z,372
2017-07-27T17:08:56.778Z,372
2017-07-27T17:09:18.332Z,364
2017-07-27T17:09:40.365Z,364
2017-07-27T17:10:02.503Z,364
2017-07-27T17:10:23.944Z,360
2017-07-27T17:10:45.513Z,356
2017-07-27T17:11:07.034Z,352
2017-07-27T17:11:28.610Z,352
2017-07-27T17:11:50.177Z,344
2017-07-27T17:12:11.627Z,344
2017-07-27T17:12:33.105Z,340
2017-07-27T17:12:54.564Z,336
2017-07-27T17:13:16.025Z,332
2017-07-27T17:13:38.148Z,332
2017-07-27T17:13:59.652Z,328
2017-07-27T17:14:21.265Z,324
2017-07-27T17:14:42.781Z,316
2017-07-27T17:15:04.360Z,316
2017-07-27T17:15:26.000Z,312
2017-07-27T17:15:48.049Z,308
2017-07-27T17:16:09.510Z,304
2017-07-27T17:16:31.024Z,300
2017-07-27T17:16:52.520Z,296
2017-07-27T17:17:14.007Z,292
2017-07-27T17:17:35.484Z,292
2017-07-27T17:17:57.006Z,288
2017-07-27T17:18:18.480Z,284
2017-07-27T17:18:39.963Z,280
2017-07-27T17:19:02.030Z,280
2017-07-27T17:19:23.574Z,280
2017-07-27T17:19:45.284Z,280
2017-07-27T17:20:06.838Z,276
2017-07-27T17:20:28.494Z,272
2017-07-27T17:20:50.017Z,276
2017-07-27T17:21:11.484Z,272
2017-07-27T17:21:32.968Z,268
2017-07-27T17:21:54.480Z,272
2017-07-27T17:22:16.033Z,268
2017-07-27T17:22:37.527Z,268
2017-07-27T17:22:59.054Z,264
2017-07-27T17:23:20.602Z,264
2017-07-27T17:23:42.109Z,264
2017-07-27T17:24:03.562Z,260
2017-07-27T17:24:25.001Z,260
2017-07-27T17:24:46.570Z,256
2017-07-27T17:25:08.120Z,252
2017-07-27T17:25:30.714Z,252
2017-07-27T17:25:53.579Z,248
2017-07-27T17:26:15.640Z,244
2017-07-27T17:26:37.751Z,236
2017-07-27T17:26:59.977Z,236
2017-07-27T17:27:21.993Z,228
2017-07-27T17:27:44.263Z,224
2017-07-27T17:28:06.484Z,220
2017-07-27T17:28:28.379Z,216
2017-07-27T17:28:50.527Z,212
2017-07-27T17:29:12.661Z,208
2017-07-27T17:29:34.900Z,204
2017-07-27T17:29:57.064Z,200
2017-07-27T17:30:19.155Z,196
2017-07-27T17:30:44.035Z,192
2017-07-27T17:31:05.462Z,188
2017-07-27T17:31:27.010Z,184
2017-07-27T17:31:48.546Z,180
2017-07-27T17:32:09.973Z,172
2017-07-27T17:32:31.436Z,172
2017-07-27T17:32:52.925Z,168
2017-07-27T17:33:14.463Z,168
2017-07-27T17:33:35.959Z,164
2017-07-27T17:33:57.427Z,160
2017-07-27T17:34:18.970Z,156
2017-07-27T17:34:40.588Z,156
2017-07-27T17:35:02.124Z,152
2017-07-27T17:35:23.685Z,152
2017-07-27T17:35:45.270Z,144
2017-07-27T17:36:07.383Z,144
2017-07-27T17:36:28.867Z,140
2017-07-27T17:36:50.314Z,140
2017-07-27T17:37:12.084Z,136
2017-07-27T17:37:33.540Z,136
2017-07-27T17:37:55.032Z,136
2017-07-27T17:38:16.674Z,132
2017-07-27T17:38:38.189Z,128
2017-07-27T17:38:59.820Z,132
2017-07-27T17:39:21.282Z,128
2017-07-27T17:39:43.004Z,128
2017-07-27T17:40:05.207Z,124
2017-07-27T17:40:27.233Z,124
2017-07-27T17:40:49.360Z,120
2017-07-27T17:41:11.503Z,120
2017-07-27T17:41:32.967Z,116
2017-07-27T17:41:54.740Z,116
2017-07-27T17:42:16.208Z,116
2017-07-27T17:42:38.403Z,116
2017-07-27T17:42:59.973Z,112
2017-07-27T17:43:21.580Z,108
2017-07-27T17:43:43.828Z,108
2017-07-27T17:44:05.985Z,108
2017-07-27T17:44:28.086Z,108
2017-07-27T17:44:50.141Z,104
2017-07-27T17:45:12.350Z,100
2017-07-27T17:45:34.467Z,96
2017-07-27T17:45:55.984Z,96
2017-07-27T17:46:17.459Z,92
2017-07-27T17:46:39.029Z,92
2017-07-27T17:47:00.666Z,88
2017-07-27T17:47:22.221Z,88
2017-07-27T17:47:43.814Z,84
2017-07-27T17:48:05.274Z,84
2017-07-27T17:48:27.076Z,80
2017-07-27T17:48:48.642Z,80
2017-07-27T17:49:10.097Z,76
2017-07-27T17:49:32.116Z,76
2017-07-27T17:49:53.592Z,76
2017-07-27T17:50:15.084Z,72
2017-07-27T17:50:37.062Z,68
2017-07-27T17:50:58.604Z,68
2017-07-27T17:51:20.139Z,68
2017-07-27T17:51:42.046Z,68
2017-07-27T17:52:04.177Z,64
2017-07-27T17:52:26.212Z,64
2017-07-27T17:52:48.441Z,60
2017-07-27T17:53:11.247Z,64
2017-07-27T17:53:33.110Z,60
2017-07-27T17:53:54.599Z,60
2017-07-27T17:54:16.128Z,60
2017-07-27T17:54:37.598Z,60
2017-07-27T17:54:59.411Z,60
2017-07-27T17:55:21.427Z,60
2017-07-27T17:55:42.916Z,56
2017-07-27T17:56:05.038Z,56
2017-07-27T17:56:27.165Z,60
2017-07-27T17:56:49.125Z,56
2017-07-27T17:57:11.193Z,56
2017-07-27T17:57:32.721Z,52
2017-07-27T17:57:54.174Z,52
2017-07-27T17:58:15.657Z,56
2017-07-27T17:58:37.443Z,56
2017-07-27T17:58:58.915Z,56
2017-07-27T17:59:20.453Z,56
2017-07-27T17:59:42.020Z,52
2017-07-27T18:00:03.485Z,56
2017-07-27T18:00:25.202Z,52
2017-07-27T18:00:47.245Z,56
2017-07-27T18:01:08.849Z,52
2017-07-27T18:01:31.075Z,52
2017-07-27T18:01:53.152Z,52
2017-07-27T18:02:14.735Z,52
2017-07-27T18:02:36.936Z,52
2017-07-27T18:02:59.176Z,52
2017-07-27T18:03:21.354Z,52
2017-07-27T18:03:42.942Z,52
2017-07-27T18:04:04.444Z,52
2017-07-27T18:04:25.994Z,48
2017-07-27T18:04:47.496Z,52
2017-07-27T18:05:09.151Z,48
2017-07-27T18:05:30.602Z,52
2017-07-27T18:05:52.027Z,48
2017-07-27T18:06:13.500Z,52
2017-07-27T18:06:35.014Z,48
2017-07-27T18:07:32.689Z,48
2017-07-27T18:07:54.387Z,48
2017-07-27T18:08:16.364Z,48
2017-07-27T18:08:37.788Z,44
2017-07-27T18:08:59.756Z,44
2017-07-27T18:09:21.896Z,44
2017-07-27T18:09:43.420Z,44
2017-07-27T18:10:04.938Z,40
2017-07-27T18:10:26.835Z,40
2017-07-27T18:10:48.892Z,40
2017-07-27T18:11:10.359Z,36
2017-07-27T18:11:32.452Z,40
2017-07-27T18:11:54.532Z,36
2017-07-27T18:12:16.612Z,36
2017-07-27T18:12:38.146Z,36
2017-07-27T18:12:59.755Z,32
2017-07-27T18:13:21.261Z,32
2017-07-27T18:13:43.095Z,32
2017-07-27T18:14:05.274Z,32
2017-07-27T18:14:26.797Z,32
2017-07-27T18:14:48.344Z,28
2017-07-27T18:15:09.926Z,28
2017-07-27T18:15:31.975Z,28
2017-07-27T18:15:53.521Z,28
2017-07-27T18:16:14.940Z,24
2017-07-27T18:16:36.439Z,28
2017-07-27T18:16:57.910Z,24
2017-07-27T18:17:19.455Z,24
2017-07-27T18:17:40.973Z,24
2017-07-27T18:18:02.486Z,28
2017-07-27T18:18:24.050Z,24
2017-07-27T18:18:46.217Z,24
2017-07-27T18:19:07.710Z,24
2017-07-27T18:19:29.180Z,24
2017-07-27T18:19:50.761Z,24
2017-07-27T18:20:12.344Z,24
2017-07-27T18:20:33.923Z,20
2017-07-27T18:20:55.929Z,20
2017-07-27T18:21:18.038Z,16
2017-07-27T18:21:39.599Z,16
2017-07-27T18:22:01.088Z,16
2017-07-27T18:22:22.788Z,16
2017-07-27T18:22:44.977Z,20
2017-07-27T18:23:07.231Z,20
2017-07-27T18:23:29.319Z,16
2017-07-27T18:23:51.456Z,16
2017-07-27T18:24:12.894Z,16
2017-07-27T18:24:34.355Z,16
2017-07-27T18:24:56.511Z,16
2017-07-27T18:25:18.791Z,16
2017-07-27T18:25:41.026Z,16
2017-07-27T18:26:03.175Z,16
2017-07-27T18:26:25.276Z,16
2017-07-27T18:26:47.326Z,16
2017-07-27T18:27:08.836Z,12
2017-07-27T18:27:30.390Z,12
2017-07-27T18:27:51.840Z,16
2017-07-27T18:28:13.575Z,16
2017-07-27T18:28:35.177Z,12
2017-07-27T18:28:56.761Z,12
2017-07-27T18:29:18.891Z,12
2017-07-27T18:29:40.391Z,12
2017-07-27T18:30:02.303Z,12
2017-07-27T18:30:24.389Z,12
2017-07-27T18:30:46.509Z,12
2017-07-27T18:31:08.174Z,12
2017-07-27T18:31:29.705Z,12
2017-07-27T18:31:51.296Z,12
2017-07-27T18:32:12.799Z,12
2017-07-27T18:32:35.329Z,12
2017-07-27T18:32:56.693Z,12
2017-07-27T18:33:18.173Z,12
2017-07-27T18:33:39.742Z,12
2017-07-27T18:34:01.301Z,8
2017-07-27T18:34:22.898Z,8
2017-07-27T18:34:44.457Z,12
2017-07-27T18:35:06.022Z,12
2017-07-27T18:35:27.755Z,12
2017-07-27T18:35:49.873Z,12
2017-07-27T18:36:11.963Z,12
2017-07-27T18:36:34.019Z,8
2017-07-27T18:36:56.015Z,8
2017-07-27T18:37:18.134Z,8
2017-07-27T18:37:39.602Z,12
2017-07-27T18:38:01.081Z,8
2017-07-27T18:38:22.531Z,8
2017-07-27T18:38:44.554Z,8
2017-07-27T18:39:06.522Z,8
2017-07-27T18:39:28.007Z,8
2017-07-27T18:39:49.504Z,8
2017-07-27T18:40:11.394Z,8
2017-07-27T18:40:32.891Z,8
2017-07-27T18:40:54.940Z,8
2017-07-27T18:41:17.047Z,8
2017-07-27T18:41:40.245Z,8
2017-07-27T18:42:01.839Z,4
2017-07-27T18:42:23.828Z,4
2017-07-27T18:42:46.073Z,8
2017-07-27T18:43:07.560Z,8
2017-07-27T18:43:29.057Z,8
2017-07-27T18:43:50.490Z,4
2017-07-27T18:44:12.716Z,4
2017-07-27T18:44:34.746Z,4
2017-07-27T18:44:58.343Z,8
2017-07-27T18:45:22.073Z,8
2017-07-27T18:45:45.570Z,8
2017-07-27T18:46:07.691Z,4
2017-07-27T18:46:30.294Z,4
2017-07-27T18:46:52.646Z,4
2017-07-27T18:47:14.702Z,4
2017-07-27T18:47:36.817Z,8
2017-07-27T18:47:58.909Z,4
2017-07-27T18:48:21.198Z,4
2017-07-27T18:48:43.341Z,4
2017-07-27T18:49:04.796Z,4
2017-07-27T18:49:26.304Z,4
2017-07-27T18:49:47.730Z,4
2017-07-27T18:50:09.174Z,4
2017-07-27T18:50:30.741Z,0
2017-07-27T18:50:52.745Z,4
2017-07-27T18:51:14.222Z,4
2017-07-27T18:51:35.767Z,4
2017-07-27T18:51:57.412Z,4
2017-07-27T18:52:19.005Z,4
2017-07-27T18:52:40.554Z,4
2017-07-27T18:53:02.006Z,4
2017-07-27T18:53:23.476Z,4
2017-07-27T18:53:44.912Z,4
2017-07-27T18:54:06.422Z,4
2017-07-27T18:54:27.911Z,0
2017-07-27T18:54:49.401Z,0
2017-07-27T18:55:46.796Z,4
2017-07-27T18:56:08.686Z,4
2017-07-27T18:56:30.154Z,4
2017-07-27T18:56:52.350Z,4
2017-07-27T18:57:14.389Z,4
2017-07-27T18:57:36.545Z,4
2017-07-27T18:57:57.940Z,4
2017-07-27T18:58:19.430Z,4
2017-07-27T18:58:41.069Z,4
2017-07-27T18:59:02.594Z,4
2017-07-27T18:59:24.192Z,4
2017-07-27T18:59:45.696Z,4
2017-07-27T19:00:07.140Z,4
2017-07-27T19:00:28.635Z,4
2017-07-27T19:00:50.083Z,4
2017-07-27T19:01:12.191Z,4
2017-07-27T19:01:34.366Z,4
2017-07-27T19:01:55.847Z,4
2017-07-27T19:02:17.313Z,4
2017-07-27T19:02:38.992Z,4
2017-07-27T19:03:01.217Z,4
2017-07-27T19:03:23.000Z,4
2017-07-27T19:03:44.487Z,4
2017-07-27T19:04:06.030Z,4
2017-07-27T19:04:27.572Z,4
2017-07-27T19:04:49.062Z,4
2017-07-27T19:05:10.882Z,4
2017-07-27T19:05:33.022Z,4
2017-07-27T19:05:54.479Z,4
2017-07-27T19:06:16.018Z,4
2017-07-27T19:06:37.542Z,4
2017-07-27T19:06:59.124Z,4
2017-07-27T19:07:20.623Z,4
2017-07-27T19:07:42.258Z,4
2017-07-27T19:08:03.733Z,4
2017-07-27T19:08:25.587Z,4
2017-07-27T19:08:47.647Z,4
2017-07-27T19:09:09.666Z,4
2017-07-27T19:09:31.138Z,0
2017-07-27T19:09:52.573Z,0
2017-07-27T19:10:14.023Z,0
2017-07-27T19:10:35.499Z,0
2017-07-27T19:10:57.020Z,0
2017-07-27T19:11:18.565Z,0
2017-07-27T19:12:16.575Z,0
2017-07-27T19:12:39.028Z,0
2017-07-27T19:13:01.194Z,0
2017-07-27T19:13:23.017Z,0
2017-07-27T19:13:44.517Z,0
2017-07-27T19:14:05.904Z,0
2017-07-27T19:14:27.321Z,0
2017-07-27T19:14:48.763Z,0
2017-07-27T19:15:10.158Z,0
2017-07-27T19:15:31.698Z,0
2017-07-27T19:15:53.231Z,0
2017-07-27T19:16:14.728Z,0
2017-07-27T19:16:36.295Z,0
2017-07-27T19:16:58.537Z,0
2017-07-27T19:17:20.771Z,0
2017-07-27T19:17:42.272Z,0
2017-07-27T19:18:03.732Z,0
2017-07-27T19:18:25.509Z,0
2017-07-27T19:18:47.628Z,0
2017-07-27T19:19:09.907Z,0
2017-07-27T19:19:32.002Z,0
2017-07-27T19:19:53.575Z,0
2017-07-27T19:20:15.008Z,0
2017-07-27T19:20:36.504Z,0
2017-07-27T19:20:57.941Z,0
2017-07-27T19:21:19.447Z,0
2017-07-27T19:21:40.928Z,0
2017-07-27T19:22:02.409Z,0
2017-07-27T19:22:23.907Z,0
2017-07-27T19:22:45.342Z,0
2017-07-27T19:23:06.830Z,0
2017-07-27T19:23:28.289Z,0
2017-07-27T19:23:49.783Z,0
2017-07-27T19:24:11.446Z,0
2017-07-27T19:24:33.025Z,0
2017-07-27T19:24:54.762Z,0
2017-07-27T19:25:16.983Z,0
2017-07-27T19:25:39.179Z,0
2017-07-27T19:26:01.262Z,0
2017-07-27T19:26:23.403Z,0
2017-07-27T19:26:45.499Z,0
2017-07-27T19:27:06.930Z,0
2017-07-27T19:27:29.187Z,0
2017-07-27T19:27:51.219Z,0
2017-07-27T19:28:13.247Z,0
2017-07-27T19:28:34.773Z,0
2017-07-27T19:28:56.646Z,0
2017-07-27T19:29:18.670Z,0
2017-07-27T19:29:40.125Z,0
2017-07-27T19:30:01.567Z,0
2017-07-27T19:30:23.053Z,0
2017-07-27T19:30:44.642Z,0
2017-07-27T19:31:06.310Z,0
2017-07-27T19:31:27.856Z,0
2017-07-27T19:31:49.359Z,0
2017-07-27T19:32:10.836Z,0
2017-07-27T19:32:32.893Z,0
2017-07-27T19:32:55.014Z,0
2017-07-27T19:33:18.134Z,0
2017-07-27T19:33:40.052Z,0
2017-07-27T19:34:01.428Z,0
2017-07-27T19:34:22.891Z,0
2017-07-27T19:34:44.428Z,0
2017-07-27T19:35:05.969Z,0
2017-07-27T19:35:27.442Z,0
2017-07-27T19:35:49.337Z,0
2017-07-27T19:36:10.778Z,0
2017-07-27T19:36:32.372Z,0
2017-07-27T19:36:54.524Z,0
2017-07-27T19:37:16.678Z,0
2017-07-27T19:37:38.760Z,0
2017-07-27T19:38:00.230Z,0
2017-07-27T19:38:21.773Z,0
2017-07-27T19:38:43.370Z,0
2017-07-27T19:39:04.998Z,0
2017-07-27T19:39:26.535Z,0
2017-07-27T19:39:48.071Z,0
2017-07-27T19:40:09.537Z,0
2017-07-27T19:40:30.958Z,0
2017-07-27T19:40:52.622Z,0
2017-07-27T19:41:14.150Z,0
2017-07-27T19:41:35.741Z,0
2017-07-27T19:41:57.372Z,0
2017-07-27T19:42:19.009Z,0
2017-07-27T19:42:40.457Z,0
2017-07-27T19:43:01.923Z,0
2017-07-27T19:43:23.487Z,0
2017-07-27T19:43:45.005Z,0
2017-07-27T19:44:06.485Z,0
2017-07-27T19:44:27.958Z,0
2017-07-27T19:44:49.849Z,0
2017-07-27T19:45:11.383Z,0
2017-07-27T19:45:33.527Z,0
2017-07-27T19:45:55.652Z,0
2017-07-27T19:46:17.867Z,0
2017-07-27T19:46:40.073Z,0
2017-07-27T19:47:02.257Z,0
2017-07-27T19:47:24.477Z,0
2017-07-27T19:47:46.599Z,0
2017-07-27T19:48:08.755Z,0
2017-07-27T19:48:30.353Z,0
2017-07-27T19:48:51.886Z,0
2017-07-27T19:49:13.379Z,0
2017-07-27T19:49:34.881Z,0
2017-07-27T19:49:56.362Z,0
2017-07-27T19:50:17.859Z,0
2017-07-27T19:50:39.308Z,0
2017-07-27T19:51:00.754Z,0
2017-07-27T19:51:22.512Z,0
2017-07-27T19:51:43.950Z,0
2017-07-27T19:52:05.402Z,0
2017-07-27T19:52:26.854Z,0
2017-07-27T19:52:48.987Z,0
2017-07-27T19:53:10.433Z,0
2017-07-27T19:53:31.994Z,0
2017-07-27T19:53:53.500Z,0
2017-07-27T19:54:15.091Z,0
2017-07-27T19:54:37.084Z,0
2017-07-27T19:54:59.139Z,0
2017-07-27T19:55:21.185Z,0
2017-07-27T19:55:43.144Z,0
2017-07-27T19:56:05.240Z,0
2017-07-27T19:56:27.338Z,0
2017-07-27T19:56:49.399Z,0
2017-07-27T19:57:11.512Z,0
2017-07-27T19:57:33.674Z,0
2017-07-27T19:57:55.789Z,0
2017-07-27T19:58:17.884Z,0
2017-07-27T19:58:40.032Z,0
2017-07-27T19:59:02.131Z,0
2017-07-27T19:59:24.352Z,0
2017-07-27T19:59:46.468Z,0
2017-07-27T20:00:08.627Z,0
2017-07-27T20:00:30.067Z,0
2017-07-27T20:00:51.518Z,0
2017-07-27T20:01:12.949Z,0
2017-07-27T20:01:34.820Z,0
2017-07-27T20:01:56.274Z,0
2017-07-27T20:02:17.739Z,0
2017-07-27T20:02:39.193Z,0
2017-07-27T20:03:00.611Z,0
2017-07-27T20:03:22.081Z,0
2017-07-27T20:03:44.797Z,0
2017-07-27T20:04:06.225Z,0
2017-07-27T20:04:27.786Z,0
2017-07-27T20:04:49.363Z,0
2017-07-27T20:05:10.841Z,0
2017-07-27T20:05:32.430Z,0
2017-07-27T20:05:53.980Z,0
2017-07-27T20:06:15.505Z,0
2017-07-27T20:06:36.996Z,0
2017-07-27T20:06:58.553Z,0